This demonstration page uses our WeatherBlox Daily Observations layout. Learn more.

Hourly Observations for February 17, 2017

Temp ( °F °C ) Dew Point ( °F °C ) Humidity (%) Winds ( mph kmh ) Pressure ( in mb ) Visibility ( mi km ) Precip ( " mm )
12:54 am 00:54 Clear 49 9.4 29 -1.7 46 46 SSW 7 11 29.6 1003 10 16.0934 0 0
1:54 am 01:54 Clear 48 8.9 31 -0.6 52 52 SSW 9 15 29.6 1002 10 16.0934 0 0
2:54 am 02:54 Clear 47 8.3 31 -0.6 54 54 SSW 9 15 29.59 1002 10 16.0934 0 0
3:54 am 03:54 Clear 44 6.7 31 -0.6 60 60 S 5 7 29.6 1002 10 16.0934 0 0
4:54 am 04:54 Clear 45 7.2 31 -0.6 58 58 S 7 11 29.61 1003 10 16.0934 0 0
5:54 am 05:54 Clear 40 4.4 31 -0.6 70 70 S 8 13 29.61 1003 10 16.0934 0 0
6:54 am 06:54 Clear 37 2.8 30 -1.1 76 76 S 7 11 29.62 1003 10 16.0934 0 0
7:54 am 07:54 Sunny 37 2.8 31 -0.6 79 79 S 7 11 29.63 1004 10 16.0934 0 0
8:54 am 08:54 Sunny 47 8.3 34 1.1 61 61 SSW 10 17 29.63 1003 10 16.0934 0 0
9:54 am 09:54 Sunny 52 11.1 34 1.1 50 50 SSW 14 22 29.64 1004 10 16.0934 0 0
10:54 am 10:54 Sunny 56 13.3 34 1.1 44 44 SSW 15 24 29.62 1003 10 16.0934 0 0
11:54 am 11:54 Sunny 63 17.2 33 0.6 33 33 SSW 13 20 29.6 1002 10 16.0934 0 0
12:54 pm 12:54 Sunny 68 20 32 0 26 26 SSW 14 22 29.57 1002 10 16.0934 0 0
1:54 pm 13:54 Sunny 73 22.8 31 -0.6 21 21 SSW 18 30 29.55 1001 10 16.0934 0 0
2:54 pm 14:54 Sunny 74 23.3 30 -1.1 20 20 SSW 15 24 29.56 1001 10 16.0934 0 0
3:54 pm 15:54 Sunny 74 23.3 30 -1.1 20 20 W 14 22 29.58 1002 10 16.0934 0 0
4:54 pm 16:54 Sunny 72 22.2 31 -0.6 22 22 WSW 7 11 29.58 1002 10 16.0934 0 0
5:54 pm 17:54 Sunny 68 20 31 -0.6 25 25 Calm 29.62 1003 10 16.0934 0 0
6:54 pm 18:54 Clear 52 11.1 34 1.1 50 50 N 7 11 29.67 1005 10 16.0934 0 0
7:54 pm 19:54 Clear 55 12.8 36 2.2 49 49 NNW 12 19 29.7 1006 10 16.0934 0 0
8:54 pm 20:54 Clear 44 6.7 34 1.1 68 68 N 3 6 29.71 1006 10 16.0934 0 0
9:54 pm 21:54 Clear 44 6.7 34 1.1 68 68 N 3 6 29.74 1007 10 16.0934 0 0
10:54 pm 22:54 Clear 39 3.9 32 0 76 76 Calm 29.75 1007 10 16.0934 0 0
11:54 pm 23:54 Clear 36 2.2 31 -0.6 82 82 Calm 29.75 1008 10 16.0934 0 0

Powered by AerisWeather